createdAt,value
2023-04-17T00:04:14.667Z,2.35
2023-04-17T00:09:16.278Z,2.05
2023-04-17T00:14:17.748Z,0.98
2023-04-17T00:19:19.205Z,1.30
2023-04-17T00:24:20.665Z,2.85
2023-04-17T00:29:22.127Z,0.90
2023-04-17T00:34:23.615Z,1.60
2023-04-17T00:39:25.581Z,1.02
2023-04-17T00:44:27.689Z,2.70
2023-04-17T00:49:29.891Z,1.35
2023-04-17T00:54:32.228Z,2.15
2023-04-17T00:59:35.707Z,1.80
2023-04-17T01:04:37.321Z,1.65
2023-04-17T01:09:38.855Z,1.15
2023-04-17T01:14:40.323Z,1.45
2023-04-17T01:19:42.066Z,1.55
2023-04-17T01:24:43.824Z,2.50
2023-04-17T01:29:45.758Z,1.60
2023-04-17T01:34:47.247Z,1.98
2023-04-17T01:39:48.807Z,1.80
2023-04-17T01:44:50.484Z,1.52
2023-04-17T01:49:51.928Z,0.95
2023-04-17T01:54:53.379Z,1.98
2023-04-17T01:59:54.844Z,1.38
2023-04-17T02:04:56.308Z,1.33
2023-04-17T02:09:57.786Z,2.10
2023-04-17T02:15:01.263Z,2.25
2023-04-17T02:20:06.777Z,1.77
2023-04-17T02:25:08.445Z,1.48
2023-04-17T02:30:10.416Z,2.53
2023-04-17T02:35:11.918Z,1.13
2023-04-17T02:40:14.457Z,1.40
2023-04-17T02:45:16.069Z,3.22
2023-04-17T02:50:17.581Z,2.22
2023-04-17T02:55:35.982Z,1.20
2023-04-17T03:00:39.366Z,2.20
2023-04-17T03:05:42.901Z,1.40
2023-04-17T03:10:44.529Z,2.17
2023-04-17T03:15:46.160Z,1.63
2023-04-17T03:20:47.665Z,1.98
2023-04-17T03:25:49.871Z,1.63
2023-04-17T03:30:52.181Z,1.55
2023-04-17T03:35:53.738Z,1.30
2023-04-17T03:40:55.387Z,1.92
2023-04-17T03:45:59.472Z,1.08
2023-04-17T03:51:01.044Z,1.65
2023-04-17T03:56:04.386Z,1.75
2023-04-17T04:01:12.591Z,2.33
2023-04-17T04:06:24.617Z,3.13
2023-04-17T04:11:26.278Z,2.40
2023-04-17T04:16:28.990Z,1.05
2023-04-17T04:21:39.514Z,1.63
2023-04-17T04:26:47.340Z,3.13
2023-04-17T04:31:51.046Z,2.90
2023-04-17T04:36:56.646Z,1.50
2023-04-17T04:42:10.653Z,3.03
2023-04-17T04:47:26.808Z,3.08
2023-04-17T04:52:29.273Z,3.40
2023-04-17T04:57:34.520Z,3.53
2023-04-17T05:02:37.590Z,2.80
2023-04-17T05:07:41.326Z,2.13
2023-04-17T05:12:46.376Z,1.73
2023-04-17T05:17:49.156Z,2.67
2023-04-17T05:22:50.977Z,2.75
2023-04-17T05:27:52.480Z,1.52
2023-04-17T05:32:54.429Z,2.58
2023-04-17T05:38:04.811Z,1.85
2023-04-17T05:43:09.234Z,2.25
2023-04-17T05:48:11.505Z,1.60
2023-04-17T05:53:12.986Z,1.58
2023-04-17T05:58:24.510Z,1.67
2023-04-17T06:03:29.910Z,2.67
2023-04-17T06:08:38.986Z,2.17
2023-04-17T06:13:40.527Z,3.08
2023-04-17T06:18:43.002Z,2.03
2023-04-17T06:23:44.539Z,1.55
2023-04-17T06:28:45.996Z,2.28
2023-04-17T06:33:50.080Z,3.78
2023-04-17T06:38:54.500Z,2.20
2023-04-17T06:43:57.315Z,4.20
2023-04-17T06:48:59.613Z,3.22
2023-04-17T06:54:03.335Z,3.47
2023-04-17T06:59:04.824Z,3.95
2023-04-17T07:04:08.304Z,2.00
2023-04-17T07:09:09.989Z,3.33
2023-04-17T07:14:12.896Z,2.35
2023-04-17T07:19:14.746Z,3.60
2023-04-17T07:24:16.368Z,2.08
2023-04-17T07:29:17.882Z,2.78
2023-04-17T07:34:19.524Z,2.40
2023-04-17T07:39:21.087Z,3.10
2023-04-17T07:44:22.548Z,1.98
2023-04-17T07:49:24.009Z,2.22
2023-04-17T07:54:25.601Z,2.38
2023-04-17T07:59:27.072Z,2.92
2023-04-17T08:04:28.706Z,3.75
2023-04-17T08:09:30.426Z,1.73
2023-04-17T08:14:32.356Z,3.15
2023-04-17T08:19:33.836Z,1.88
2023-04-17T08:24:35.304Z,2.22
2023-04-17T08:29:37.679Z,2.40
2023-04-17T08:34:39.137Z,1.65
2023-04-17T08:39:40.892Z,2.15
2023-04-17T08:44:42.375Z,4.68
2023-04-17T08:49:45.886Z,2.03
2023-04-17T08:54:51.039Z,1.80
2023-04-17T08:59:52.872Z,2.55
2023-04-17T09:04:54.465Z,2.15
2023-04-17T09:09:57.108Z,1.90
2023-04-17T09:14:58.684Z,2.25
2023-04-17T09:20:11.785Z,2.08
2023-04-17T09:25:20.749Z,1.80
2023-04-17T09:30:25.125Z,1.17
2023-04-17T09:35:26.654Z,2.30
2023-04-17T09:40:37.145Z,1.58
2023-04-17T09:45:41.604Z,2.17
2023-04-17T09:50:44.273Z,2.50
2023-04-17T09:55:45.904Z,1.67
2023-04-17T10:00:48.132Z,2.13
2023-04-17T10:05:49.895Z,2.25
2023-04-17T10:10:52.313Z,1.00
2023-04-17T10:15:53.945Z,1.55
2023-04-17T10:20:55.774Z,2.00
2023-04-17T10:26:25.354Z,1.95
2023-04-17T10:32:16.391Z,1.30
2023-04-17T10:42:22.559Z,1.17
2023-04-17T10:47:31.496Z,1.42
2023-04-17T10:52:33.124Z,1.50
2023-04-17T10:57:52.040Z,1.25
2023-04-17T11:02:53.834Z,1.30
2023-04-17T11:07:55.536Z,0.95
2023-04-17T11:12:57.021Z,1.02
2023-04-17T11:17:59.528Z,0.90
2023-04-17T11:23:02.448Z,0.82
2023-04-17T11:28:06.138Z,1.38
2023-04-17T11:33:08.735Z,0.88
2023-04-17T11:38:18.989Z,1.00
2023-04-17T11:43:22.558Z,1.50
2023-04-17T11:48:26.321Z,1.08
2023-04-17T11:53:27.898Z,1.08
2023-04-17T11:58:30.374Z,1.55
2023-04-17T12:03:36.041Z,1.42
2023-04-17T12:08:52.180Z,1.08
2023-04-17T12:13:55.279Z,1.20
2023-04-17T12:18:57.193Z,1.35
2023-04-17T12:23:58.649Z,1.30
2023-04-17T12:29:00.245Z,1.05
2023-04-17T12:34:01.741Z,1.15
2023-04-17T12:39:03.758Z,2.55
2023-04-17T12:44:05.754Z,2.17
2023-04-17T12:49:07.427Z,1.48
2023-04-17T12:54:08.938Z,1.20
2023-04-17T12:59:10.835Z,1.25
2023-04-17T13:04:13.374Z,1.75
2023-04-17T13:09:16.992Z,1.38
2023-04-17T13:14:18.507Z,1.73
2023-04-17T13:19:20.116Z,1.33
2023-04-17T13:24:21.760Z,0.85
2023-04-17T13:29:23.487Z,1.33
2023-04-17T13:34:24.989Z,0.93
2023-04-17T13:39:26.867Z,1.20
2023-04-17T13:44:28.450Z,0.70
2023-04-17T13:49:29.940Z,1.55
2023-04-17T13:54:31.588Z,1.40
2023-04-17T13:59:33.050Z,0.85
2023-04-17T14:04:34.691Z,1.08
2023-04-17T14:09:36.249Z,1.30
2023-04-17T14:14:37.707Z,1.48
2023-04-17T14:19:39.175Z,1.23
2023-04-17T14:24:40.626Z,1.23
2023-04-17T14:29:42.076Z,1.40
2023-04-17T14:34:43.559Z,0.75
2023-04-17T14:39:45.022Z,1.38
2023-04-17T14:44:47.070Z,0.73
2023-04-17T14:49:48.545Z,1.23
2023-04-17T14:54:50.008Z,0.90
2023-04-17T14:59:51.928Z,0.60
2023-04-17T15:04:53.355Z,0.60
2023-04-17T15:09:56.313Z,0.68
2023-04-17T15:14:57.899Z,0.32
2023-04-17T15:20:00.728Z,0.80
2023-04-17T15:25:02.210Z,0.40
2023-04-17T15:30:06.589Z,0.30
2023-04-17T15:35:08.453Z,0.68
2023-04-17T15:40:10.248Z,0.32
2023-04-17T15:45:11.885Z,0.85
2023-04-17T15:50:13.634Z,0.73
2023-04-17T15:55:15.379Z,1.45
2023-04-17T16:00:17.253Z,0.88
2023-04-17T16:05:19.068Z,0.77
2023-04-17T16:10:20.715Z,0.75
2023-04-17T16:15:22.256Z,0.40
2023-04-17T16:20:23.787Z,2.85
2023-04-17T16:25:25.349Z,0.63
2023-04-17T16:30:27.024Z,0.52
2023-04-17T16:35:29.967Z,1.13
2023-04-17T16:40:31.456Z,1.40
2023-04-17T16:45:32.961Z,0.50
2023-04-17T16:50:34.445Z,0.65
2023-04-17T16:55:36.486Z,0.45
2023-04-17T17:00:38.044Z,0.85
2023-04-17T17:05:39.602Z,1.30
2023-04-17T17:10:41.218Z,0.90
2023-04-17T17:15:42.664Z,0.43
2023-04-17T17:20:44.120Z,1.25
2023-04-17T17:25:45.575Z,0.73
2023-04-17T17:30:48.042Z,0.30
2023-04-17T17:35:49.515Z,0.40
2023-04-17T17:40:52.084Z,0.60
2023-04-17T17:45:53.731Z,1.00
2023-04-17T17:50:57.077Z,1.35
2023-04-17T17:55:58.595Z,0.77
2023-04-17T18:01:00.022Z,0.85
2023-04-17T18:06:01.500Z,0.45
2023-04-17T18:11:03.021Z,0.70
2023-04-17T18:16:04.775Z,0.55
2023-04-17T18:21:07.113Z,0.30
2023-04-17T18:26:08.595Z,0.95
2023-04-17T18:31:10.655Z,0.90
2023-04-17T18:36:12.191Z,1.40
2023-04-17T18:41:13.650Z,0.80
2023-04-17T18:46:15.147Z,0.50
2023-04-17T18:51:17.445Z,0.32
2023-04-17T18:56:18.975Z,0.70
2023-04-17T19:01:20.559Z,0.52
2023-04-17T19:06:22.264Z,0.60
2023-04-17T19:11:24.159Z,0.20
2023-04-17T19:16:25.728Z,1.15
2023-04-17T19:21:28.254Z,1.10
2023-04-17T19:26:29.764Z,0.93
2023-04-17T19:31:31.996Z,0.43
2023-04-17T19:36:33.477Z,0.40
2023-04-17T19:41:34.932Z,0.85
2023-04-17T19:46:36.438Z,1.40
2023-04-17T19:51:38.552Z,0.30
2023-04-17T19:56:40.009Z,0.90
2023-04-17T20:01:43.583Z,0.95
2023-04-17T20:06:45.558Z,0.80
2023-04-17T20:11:47.021Z,0.20
2023-04-17T20:16:50.024Z,2.05
2023-04-17T20:21:51.546Z,1.13
2023-04-17T20:26:53.196Z,0.95
2023-04-17T20:31:54.875Z,0.13
2023-04-17T20:36:56.350Z,0.50
2023-04-17T20:41:57.824Z,0.63
2023-04-17T20:46:59.267Z,0.68
2023-04-17T20:52:02.071Z,0.80
2023-04-17T20:57:03.633Z,1.50
2023-04-17T21:02:05.369Z,0.57
2023-04-17T21:07:07.067Z,0.70
2023-04-17T21:12:08.637Z,0.77
2023-04-17T21:17:10.118Z,1.10
2023-04-17T21:22:12.912Z,1.30
2023-04-17T21:27:15.464Z,0.85
2023-04-17T21:32:16.920Z,1.10
2023-04-17T21:37:18.386Z,0.40
2023-04-17T21:42:19.887Z,0.38
2023-04-17T21:47:21.376Z,0.80
2023-04-17T21:52:22.868Z,0.60
2023-04-17T21:57:24.359Z,0.40
2023-04-17T22:02:25.941Z,0.22
2023-04-17T22:07:27.457Z,0.75
2023-04-17T22:12:29.105Z,0.95
2023-04-17T22:17:31.214Z,0.93
2023-04-17T22:22:32.677Z,0.25
2023-04-17T22:27:34.163Z,0.35
2023-04-17T22:32:36.085Z,1.40
2023-04-17T22:37:37.656Z,0.68
2023-04-17T22:42:39.119Z,0.50
2023-04-17T22:47:41.183Z,0.80
2023-04-17T22:52:42.676Z,0.75
2023-04-17T22:57:44.565Z,0.70
2023-04-17T23:02:47.064Z,0.63
2023-04-17T23:07:48.672Z,1.80
2023-04-17T23:12:50.125Z,0.45
2023-04-17T23:17:51.589Z,0.55
2023-04-17T23:22:53.254Z,0.20
2023-04-17T23:27:54.719Z,0.45
2023-04-17T23:32:56.205Z,0.73
2023-04-17T23:37:57.657Z,0.45
2023-04-17T23:42:59.151Z,0.95
2023-04-17T23:48:00.741Z,0.43
2023-04-17T23:53:02.341Z,1.73
2023-04-17T23:58:03.824Z,0.40
